Time;durP1;ratioP1;P1;durP2;ratioP2;P2;SDS_P1;SDS_P2;PMS_P1;PMS_P2;Temp;Humidity;BMP_temperature;BMP_pressure;BME280_temperature;BME280_humidity;BME280_pressure;Samples;Min_cycle;Max_cycle;Signal;HPM_P1;HPM_P2
2022/10/15 00:01:54;;;;;;;;;;;22.70;46.60;;;;;;492110;240;1169;-53
2022/10/15 00:03:56;;;;;;;;;;;22.70;46.70;;;;;;491699;240;1177;-53
2022/10/15 00:05:57;;;;;;;;;;;22.60;46.70;;;;;;491655;240;2152;-53
2022/10/15 00:07:58;;;;;;;;;;;22.60;46.70;;;;;;492151;240;1070;-53
2022/10/15 00:10:00;;;;;;;;;;;22.60;46.70;;;;;;492127;240;1195;-53
2022/10/15 00:12:01;;;;;;;;;;;22.70;46.70;;;;;;491667;240;1235;-54
2022/10/15 00:14:02;;;;;;;;;;;22.70;46.70;;;;;;491943;240;1088;-53
2022/10/15 00:16:04;;;;;;;;;;;22.70;46.70;;;;;;491984;240;1277;-53
2022/10/15 00:18:05;;;;;;;;;;;22.60;46.70;;;;;;491688;240;1219;-53
2022/10/15 00:20:06;;;;;;;;;;;22.70;46.70;;;;;;492167;240;1098;-53
2022/10/15 00:22:08;;;;;;;;;;;22.60;46.70;;;;;;492121;240;1181;-54
2022/10/15 00:24:09;;;;;;;;;;;22.60;46.80;;;;;;491851;240;1170;-54
2022/10/15 00:26:10;;;;;;;;;;;22.70;46.80;;;;;;491669;240;2188;-54
2022/10/15 00:28:12;;;;;;;;;;;22.60;46.80;;;;;;492111;240;1026;-54
2022/10/15 00:30:13;;;;;;;;;;;22.60;46.90;;;;;;491696;240;1298;-54
2022/10/15 00:32:14;;;;;;;;;;;22.60;46.90;;;;;;491662;240;1215;-53
2022/10/15 00:34:16;;;;;;;;;;;22.60;46.90;;;;;;492153;240;1170;-53
2022/10/15 00:36:17;;;;;;;;;;;22.70;46.80;;;;;;492115;240;1251;-53
2022/10/15 00:38:18;;;;;;;;;;;22.70;46.80;;;;;;491916;240;1244;-54
2022/10/15 00:40:20;;;;;;;;;;;22.70;46.90;;;;;;491687;240;1293;-53
2022/10/15 00:42:21;;;;;;;;;;;22.70;46.90;;;;;;491861;240;1545;-53
2022/10/15 00:44:22;;;;;;;;;;;22.70;46.90;;;;;;491687;240;1221;-53
2022/10/15 00:46:24;;;;;;;;;;;22.60;46.80;;;;;;492119;240;2183;-54
2022/10/15 00:48:25;;;;;;;;;;;22.60;46.90;;;;;;491943;240;1284;-53
2022/10/15 00:50:26;;;;;;;;;;;22.60;46.90;;;;;;492127;240;1273;-53
2022/10/15 00:52:27;;;;;;;;;;;22.60;46.80;;;;;;492046;240;1178;-53
2022/10/15 00:54:29;;;;;;;;;;;22.60;46.70;;;;;;491843;240;1322;-54
2022/10/15 00:56:30;;;;;;;;;;;22.70;46.60;;;;;;491682;240;1333;-54
2022/10/15 00:58:31;;;;;;;;;;;22.60;46.50;;;;;;491692;240;1293;-53
2022/10/15 01:00:33;;;;;;;;;;;22.70;46.30;;;;;;491686;240;1180;-53
2022/10/15 01:02:34;;;;;;;;;;;22.70;46.30;;;;;;491666;240;1424;-54
2022/10/15 01:04:35;;;;;;;;;;;22.70;46.20;;;;;;492151;240;1192;-53
2022/10/15 01:06:37;;;;;;;;;;;22.70;46.00;;;;;;491840;240;2203;-53
2022/10/15 01:08:38;;;;;;;;;;;22.80;45.90;;;;;;492134;240;1193;-53
2022/10/15 01:10:39;;;;;;;;;;;22.80;45.80;;;;;;492157;240;1164;-53
2022/10/15 01:12:41;;;;;;;;;;;22.80;45.80;;;;;;491918;240;1313;-53
2022/10/15 01:14:42;;;;;;;;;;;22.80;45.70;;;;;;491676;240;1207;-54
2022/10/15 01:16:43;;;;;;;;;;;22.80;45.70;;;;;;492005;240;1310;-53
2022/10/15 01:18:45;;;;;;;;;;;22.80;45.60;;;;;;491620;240;1455;-53
2022/10/15 01:20:46;;;;;;;;;;;22.80;45.50;;;;;;491627;240;1383;-53
2022/10/15 01:22:47;;;;;;;;;;;22.80;45.50;;;;;;491622;240;1273;-53
2022/10/15 01:24:49;;;;;;;;;;;22.80;45.40;;;;;;492032;240;1240;-53
2022/10/15 01:26:50;;;;;;;;;;;22.80;45.20;;;;;;491627;240;2183;-53
2022/10/15 01:28:51;;;;;;;;;;;22.90;45.20;;;;;;491647;240;1283;-53
2022/10/15 01:30:53;;;;;;;;;;;22.80;45.30;;;;;;491594;240;1641;-53
2022/10/15 01:32:54;;;;;;;;;;;22.80;45.10;;;;;;491611;240;1198;-53
2022/10/15 01:34:55;;;;;;;;;;;22.80;45.10;;;;;;491620;240;1204;-54
2022/10/15 01:36:57;;;;;;;;;;;22.80;44.90;;;;;;491575;240;1347;-53
2022/10/15 01:38:58;;;;;;;;;;;22.90;45.10;;;;;;491820;240;1246;-54
2022/10/15 01:41:00;;;;;;;;;;;22.90;45.00;;;;;;491616;240;1269;-53
2022/10/15 01:43:01;;;;;;;;;;;22.90;44.80;;;;;;492077;240;1212;-53
2022/10/15 01:45:02;;;;;;;;;;;22.80;44.80;;;;;;491901;240;1217;-54
2022/10/15 01:47:04;;;;;;;;;;;22.90;44.80;;;;;;492104;240;2192;-53
2022/10/15 01:49:05;;;;;;;;;;;22.90;44.70;;;;;;491853;240;1245;-54
2022/10/15 01:51:06;;;;;;;;;;;22.90;44.70;;;;;;491631;240;1292;-53
2022/10/15 01:53:08;;;;;;;;;;;22.90;44.60;;;;;;491669;240;1276;-54
2022/10/15 01:55:09;;;;;;;;;;;22.90;44.60;;;;;;491975;240;1213;-53
2022/10/15 01:57:10;;;;;;;;;;;22.90;44.60;;;;;;492064;240;1156;-54
2022/10/15 01:59:12;;;;;;;;;;;22.90;44.60;;;;;;491837;240;1162;-53
2022/10/15 02:01:13;;;;;;;;;;;22.90;44.50;;;;;;491683;240;1243;-53
2022/10/15 02:03:14;;;;;;;;;;;22.90;44.40;;;;;;491693;240;1183;-53
2022/10/15 02:05:16;;;;;;;;;;;22.80;44.30;;;;;;491698;240;1300;-54
2022/10/15 02:07:17;;;;;;;;;;;22.80;44.40;;;;;;492105;240;2164;-54
2022/10/15 02:09:18;;;;;;;;;;;22.90;44.40;;;;;;492132;240;1192;-53
2022/10/15 02:11:19;;;;;;;;;;;22.90;44.40;;;;;;492158;240;1192;-53
2022/10/15 02:13:21;;;;;;;;;;;22.90;44.40;;;;;;492161;240;1204;-54
2022/10/15 02:15:22;;;;;;;;;;;22.90;44.20;;;;;;491985;240;1264;-54
2022/10/15 02:17:23;;;;;;;;;;;22.90;44.20;;;;;;491700;240;1189;-53
2022/10/15 02:19:25;;;;;;;;;;;22.90;44.20;;;;;;491684;240;1235;-53
2022/10/15 02:21:26;;;;;;;;;;;22.90;44.20;;;;;;491849;240;1178;-54
2022/10/15 02:23:27;;;;;;;;;;;22.90;44.10;;;;;;491912;240;1256;-53
2022/10/15 02:25:29;;;;;;;;;;;22.90;44.00;;;;;;491670;240;1246;-54
2022/10/15 02:27:30;;;;;;;;;;;22.90;44.00;;;;;;491968;240;2188;-54
2022/10/15 02:29:31;;;;;;;;;;;22.90;44.00;;;;;;492086;240;1239;-54
2022/10/15 02:31:33;;;;;;;;;;;22.90;44.00;;;;;;491488;240;1373;-53
2022/10/15 02:33:34;;;;;;;;;;;22.90;43.90;;;;;;491751;240;1128;-53
2022/10/15 02:35:35;;;;;;;;;;;22.80;44.00;;;;;;491708;240;1300;-53
2022/10/15 02:37:37;;;;;;;;;;;22.90;43.90;;;;;;491551;240;1351;-53
2022/10/15 02:39:38;;;;;;;;;;;22.90;43.90;;;;;;491998;240;1249;-54
2022/10/15 02:41:39;;;;;;;;;;;22.90;43.90;;;;;;491487;240;1288;-53
2022/10/15 02:43:41;;;;;;;;;;;22.90;43.90;;;;;;491668;240;1328;-54
2022/10/15 02:45:42;;;;;;;;;;;22.90;43.80;;;;;;491868;240;1189;-54
2022/10/15 02:47:43;;;;;;;;;;;22.90;43.70;;;;;;491642;240;2196;-53
2022/10/15 02:49:45;;;;;;;;;;;22.90;43.70;;;;;;492092;240;1253;-53
2022/10/15 02:51:46;;;;;;;;;;;22.90;43.70;;;;;;491914;240;1256;-53
2022/10/15 02:53:47;;;;;;;;;;;22.90;43.80;;;;;;492105;240;1291;-54
2022/10/15 02:55:49;;;;;;;;;;;22.80;44.00;;;;;;491646;240;1520;-53
2022/10/15 02:57:50;;;;;;;;;;;22.80;44.30;;;;;;491640;240;1232;-53
2022/10/15 02:59:51;;;;;;;;;;;22.70;44.40;;;;;;491609;240;1278;-53
2022/10/15 03:01:53;;;;;;;;;;;22.70;44.50;;;;;;491632;240;1299;-53
2022/10/15 03:03:54;;;;;;;;;;;22.70;44.70;;;;;;491785;240;1217;-53
2022/10/15 03:05:55;;;;;;;;;;;22.70;44.80;;;;;;491622;240;1507;-53
2022/10/15 03:07:57;;;;;;;;;;;22.70;44.90;;;;;;491846;240;2149;-53
2022/10/15 03:09:58;;;;;;;;;;;22.70;45.00;;;;;;491623;240;1433;-53
2022/10/15 03:11:59;;;;;;;;;;;22.70;44.90;;;;;;491975;240;1181;-53
2022/10/15 03:14:01;;;;;;;;;;;22.60;45.00;;;;;;492088;240;2069;-54
2022/10/15 03:16:02;;;;;;;;;;;22.70;45.00;;;;;;491926;240;1260;-54
2022/10/15 03:18:03;;;;;;;;;;;22.70;45.10;;;;;;491709;240;1715;-54
2022/10/15 03:20:05;;;;;;;;;;;22.60;45.20;;;;;;491652;240;1340;-53
2022/10/15 03:22:06;;;;;;;;;;;22.60;45.20;;;;;;491596;240;1381;-53
2022/10/15 03:24:07;;;;;;;;;;;22.60;45.10;;;;;;491625;240;1230;-53
2022/10/15 03:26:08;;;;;;;;;;;22.60;45.20;;;;;;491635;240;1218;-53
2022/10/15 03:28:10;;;;;;;;;;;22.70;45.20;;;;;;491644;240;2191;-54
2022/10/15 03:30:11;;;;;;;;;;;22.60;45.30;;;;;;491658;240;1246;-53
2022/10/15 03:32:12;;;;;;;;;;;22.70;45.30;;;;;;491688;240;1207;-54
2022/10/15 03:34:14;;;;;;;;;;;22.70;45.30;;;;;;492053;240;1197;-53
2022/10/15 03:36:15;;;;;;;;;;;22.70;45.30;;;;;;491652;240;1208;-53
2022/10/15 03:38:16;;;;;;;;;;;22.70;45.30;;;;;;492057;240;1317;-53
2022/10/15 03:40:18;;;;;;;;;;;22.60;45.30;;;;;;491659;240;1220;-53
2022/10/15 03:42:19;;;;;;;;;;;22.70;45.40;;;;;;492107;240;1250;-53
2022/10/15 03:44:20;;;;;;;;;;;22.70;45.40;;;;;;491687;240;1134;-53
2022/10/15 03:46:22;;;;;;;;;;;22.70;45.40;;;;;;491982;240;1179;-53
2022/10/15 03:48:23;;;;;;;;;;;22.60;45.40;;;;;;491691;240;2192;-54
2022/10/15 03:50:25;;;;;;;;;;;22.70;45.50;;;;;;491852;240;1179;-54
2022/10/15 03:52:26;;;;;;;;;;;22.60;45.40;;;;;;492170;240;1279;-54
2022/10/15 03:54:27;;;;;;;;;;;22.60;45.50;;;;;;492030;240;1307;-53
2022/10/15 03:56:29;;;;;;;;;;;22.60;45.50;;;;;;491650;240;1242;-53
2022/10/15 03:58:30;;;;;;;;;;;22.60;45.50;;;;;;491634;240;1271;-53
2022/10/15 04:00:31;;;;;;;;;;;22.60;45.50;;;;;;492069;240;1212;-53
2022/10/15 04:02:33;;;;;;;;;;;22.60;45.50;;;;;;491671;240;1664;-54
2022/10/15 04:04:34;;;;;;;;;;;22.60;45.50;;;;;;491963;240;1202;-53
2022/10/15 04:06:35;;;;;;;;;;;22.60;45.50;;;;;;491718;240;1438;-53
2022/10/15 04:08:37;;;;;;;;;;;22.60;45.60;;;;;;491902;240;2121;-53
2022/10/15 04:10:38;;;;;;;;;;;22.60;45.50;;;;;;491877;240;1239;-53
2022/10/15 04:12:39;;;;;;;;;;;22.60;45.60;;;;;;491808;240;1305;-53
2022/10/15 04:14:41;;;;;;;;;;;22.60;45.60;;;;;;491677;240;1247;-53
2022/10/15 04:16:42;;;;;;;;;;;22.60;45.60;;;;;;491670;240;1258;-53
2022/10/15 04:18:43;;;;;;;;;;;22.60;45.70;;;;;;492132;240;1206;-53
2022/10/15 04:20:45;;;;;;;;;;;22.60;45.70;;;;;;491780;240;1253;-53
2022/10/15 04:22:46;;;;;;;;;;;22.60;45.70;;;;;;492149;240;1198;-53
2022/10/15 04:24:47;;;;;;;;;;;22.60;45.70;;;;;;492037;240;1221;-53
2022/10/15 04:26:49;;;;;;;;;;;22.70;45.70;;;;;;491920;240;1331;-53
2022/10/15 04:28:50;;;;;;;;;;;22.70;45.70;;;;;;492080;240;2139;-53
2022/10/15 04:30:51;;;;;;;;;;;22.60;45.70;;;;;;492101;240;1260;-53
2022/10/15 04:32:53;;;;;;;;;;;22.70;45.80;;;;;;491693;240;1201;-54
2022/10/15 04:34:54;;;;;;;;;;;22.60;45.70;;;;;;491724;240;1161;-54
2022/10/15 04:36:55;;;;;;;;;;;22.60;45.80;;;;;;491987;240;1113;-53
2022/10/15 04:38:57;;;;;;;;;;;22.60;45.70;;;;;;492097;240;1092;-53
2022/10/15 04:40:58;;;;;;;;;;;22.60;45.80;;;;;;492007;240;1220;-53
2022/10/15 04:42:59;;;;;;;;;;;22.60;45.80;;;;;;491979;240;1921;-53
2022/10/15 04:45:01;;;;;;;;;;;22.60;45.80;;;;;;492139;240;1228;-52
2022/10/15 04:47:02;;;;;;;;;;;22.60;45.80;;;;;;491659;240;2171;-53
2022/10/15 04:49:03;;;;;;;;;;;22.60;45.80;;;;;;492094;240;1335;-54
2022/10/15 04:51:04;;;;;;;;;;;22.60;45.80;;;;;;492090;240;1291;-53
2022/10/15 04:53:06;;;;;;;;;;;22.60;45.80;;;;;;491879;240;1260;-53
2022/10/15 04:55:07;;;;;;;;;;;22.60;45.90;;;;;;492137;240;1332;-54
2022/10/15 04:57:08;;;;;;;;;;;22.60;45.90;;;;;;491639;240;1346;-53
2022/10/15 04:59:10;;;;;;;;;;;22.60;45.90;;;;;;491910;240;1580;-53
2022/10/15 05:01:11;;;;;;;;;;;22.60;45.90;;;;;;491865;240;1206;-53
2022/10/15 05:03:13;;;;;;;;;;;22.60;46.00;;;;;;491753;240;1236;-53
2022/10/15 05:05:14;;;;;;;;;;;22.60;45.90;;;;;;492123;240;1170;-53
2022/10/15 05:07:15;;;;;;;;;;;22.60;45.90;;;;;;492051;240;2191;-54
2022/10/15 05:09:17;;;;;;;;;;;22.60;45.90;;;;;;491686;240;1299;-53
2022/10/15 05:11:18;;;;;;;;;;;22.60;46.00;;;;;;491635;240;1450;-53
2022/10/15 05:13:19;;;;;;;;;;;22.60;46.00;;;;;;492126;240;1566;-53
2022/10/15 05:15:20;;;;;;;;;;;22.60;46.00;;;;;;491985;240;1242;-54
2022/10/15 05:17:22;;;;;;;;;;;22.60;46.00;;;;;;491623;240;1491;-53
2022/10/15 05:19:23;;;;;;;;;;;22.60;46.00;;;;;;491659;240;2080;-53
2022/10/15 05:21:24;;;;;;;;;;;22.50;46.00;;;;;;491769;240;1361;-53
2022/10/15 05:23:26;;;;;;;;;;;22.60;46.10;;;;;;491687;240;1300;-53
2022/10/15 05:25:27;;;;;;;;;;;22.60;46.10;;;;;;492137;240;1177;-54
2022/10/15 05:27:28;;;;;;;;;;;22.50;46.10;;;;;;491535;240;2164;-53
2022/10/15 05:29:30;;;;;;;;;;;22.60;46.10;;;;;;491705;240;1320;-53
2022/10/15 05:31:31;;;;;;;;;;;22.60;46.10;;;;;;492151;240;1177;-53
2022/10/15 05:33:32;;;;;;;;;;;22.60;46.10;;;;;;491789;240;1486;-53
2022/10/15 05:35:34;;;;;;;;;;;22.60;46.10;;;;;;491950;240;1269;-53
2022/10/15 05:37:35;;;;;;;;;;;22.60;46.20;;;;;;492124;240;1262;-53
2022/10/15 05:39:36;;;;;;;;;;;22.60;46.20;;;;;;491734;240;1232;-53
2022/10/15 05:41:38;;;;;;;;;;;22.60;46.10;;;;;;491960;240;1288;-53
2022/10/15 05:43:39;;;;;;;;;;;22.60;46.20;;;;;;492034;240;1248;-53
2022/10/15 05:45:40;;;;;;;;;;;22.60;46.20;;;;;;492065;240;1304;-53
2022/10/15 05:47:42;;;;;;;;;;;22.60;46.20;;;;;;491636;240;2163;-54
2022/10/15 05:49:43;;;;;;;;;;;22.60;46.20;;;;;;491650;240;1208;-54
2022/10/15 05:51:44;;;;;;;;;;;22.60;46.20;;;;;;492059;240;1270;-53
2022/10/15 05:53:46;;;;;;;;;;;22.50;46.10;;;;;;491840;240;1431;-53
2022/10/15 05:55:47;;;;;;;;;;;22.60;46.20;;;;;;491614;240;1618;-53
2022/10/15 05:57:48;;;;;;;;;;;22.60;46.20;;;;;;491529;240;1674;-53
2022/10/15 05:59:50;;;;;;;;;;;22.60;46.30;;;;;;491660;240;1503;-53
2022/10/15 06:01:51;;;;;;;;;;;22.60;46.20;;;;;;491444;240;1263;-53
2022/10/15 06:03:52;;;;;;;;;;;22.60;46.20;;;;;;491733;240;1292;-54
2022/10/15 06:05:54;;;;;;;;;;;22.60;46.30;;;;;;491878;240;1220;-53
2022/10/15 06:07:55;;;;;;;;;;;22.60;46.30;;;;;;491560;240;2187;-53
2022/10/15 06:09:56;;;;;;;;;;;22.60;46.30;;;;;;491977;240;1248;-53
2022/10/15 06:11:58;;;;;;;;;;;22.60;46.20;;;;;;491761;240;1180;-53
2022/10/15 06:13:59;;;;;;;;;;;22.60;46.30;;;;;;491712;240;1292;-54
2022/10/15 06:16:00;;;;;;;;;;;22.60;46.30;;;;;;491671;240;1374;-54
2022/10/15 06:18:02;;;;;;;;;;;22.60;46.30;;;;;;491677;240;1338;-53
2022/10/15 06:20:03;;;;;;;;;;;22.60;46.30;;;;;;492080;240;1518;-53
2022/10/15 06:22:04;;;;;;;;;;;22.50;46.30;;;;;;492101;240;1280;-54
2022/10/15 06:24:05;;;;;;;;;;;22.60;46.30;;;;;;491693;240;1347;-53
2022/10/15 06:26:07;;;;;;;;;;;22.60;46.30;;;;;;492155;240;1231;-53
2022/10/15 06:28:08;;;;;;;;;;;22.60;46.30;;;;;;492089;240;2212;-53
2022/10/15 06:30:10;;;;;;;;;;;22.60;46.40;;;;;;492170;240;1080;-54
2022/10/15 06:32:11;;;;;;;;;;;22.60;46.40;;;;;;491892;240;1143;-54
2022/10/15 06:34:13;;;;;;;;;;;22.60;46.40;;;;;;491795;240;1200;-54
2022/10/15 06:36:14;;;;;;;;;;;22.60;46.40;;;;;;491685;240;1082;-53
2022/10/15 06:38:15;;;;;;;;;;;22.60;46.40;;;;;;491687;240;1311;-53
2022/10/15 06:40:17;;;;;;;;;;;22.60;46.30;;;;;;491687;240;1177;-53
2022/10/15 06:42:18;;;;;;;;;;;22.60;46.40;;;;;;491679;240;1237;-53
2022/10/15 06:44:20;;;;;;;;;;;22.60;46.40;;;;;;491733;240;1176;-53
2022/10/15 06:46:21;;;;;;;;;;;22.60;46.40;;;;;;491796;240;1254;-53
2022/10/15 06:48:22;;;;;;;;;;;22.60;46.40;;;;;;491657;240;2203;-53
2022/10/15 06:50:23;;;;;;;;;;;22.60;46.40;;;;;;492127;240;1197;-53
2022/10/15 06:52:25;;;;;;;;;;;22.60;46.40;;;;;;492133;240;1223;-53
2022/10/15 06:54:26;;;;;;;;;;;22.50;46.40;;;;;;491743;240;1230;-54
2022/10/15 06:56:27;;;;;;;;;;;22.60;46.50;;;;;;491739;240;1195;-53
2022/10/15 06:58:29;;;;;;;;;;;22.60;46.50;;;;;;492121;240;1547;-53
2022/10/15 07:00:30;;;;;;;;;;;22.50;46.40;;;;;;491642;240;1263;-53
2022/10/15 07:02:31;;;;;;;;;;;22.50;46.40;;;;;;492057;240;1117;-53
2022/10/15 07:04:33;;;;;;;;;;;22.50;46.40;;;;;;491667;240;1216;-54
2022/10/15 07:06:34;;;;;;;;;;;22.60;46.40;;;;;;491649;240;1243;-53
2022/10/15 07:08:35;;;;;;;;;;;22.60;46.50;;;;;;491786;240;2379;-53
2022/10/15 07:10:37;;;;;;;;;;;22.60;46.50;;;;;;491637;240;1163;-54
2022/10/15 07:12:38;;;;;;;;;;;22.50;46.40;;;;;;491627;240;1226;-54
2022/10/15 07:14:39;;;;;;;;;;;22.50;46.50;;;;;;491933;240;1229;-52
2022/10/15 07:16:41;;;;;;;;;;;22.60;46.50;;;;;;492139;240;1207;-53
2022/10/15 07:18:42;;;;;;;;;;;22.60;46.50;;;;;;491776;240;1293;-54
2022/10/15 07:20:43;;;;;;;;;;;22.50;46.50;;;;;;492028;240;1284;-54
2022/10/15 07:22:45;;;;;;;;;;;22.50;46.50;;;;;;492029;240;1233;-54
2022/10/15 07:24:46;;;;;;;;;;;22.60;46.50;;;;;;492053;240;1617;-54
2022/10/15 07:26:47;;;;;;;;;;;22.50;46.50;;;;;;491736;240;1211;-53
2022/10/15 07:28:49;;;;;;;;;;;22.60;46.60;;;;;;491670;240;2194;-53
2022/10/15 07:30:50;;;;;;;;;;;22.60;46.50;;;;;;491945;240;1245;-53
2022/10/15 07:32:51;;;;;;;;;;;22.60;46.50;;;;;;492154;240;1124;-52
2022/10/15 07:34:53;;;;;;;;;;;22.60;46.50;;;;;;491774;240;1235;-53
2022/10/15 07:36:54;;;;;;;;;;;22.60;46.50;;;;;;492109;240;1363;-53
2022/10/15 07:38:55;;;;;;;;;;;22.60;46.50;;;;;;491725;240;1124;-53
2022/10/15 07:40:57;;;;;;;;;;;22.60;46.50;;;;;;492135;240;1190;-53
2022/10/15 07:42:58;;;;;;;;;;;22.60;46.50;;;;;;491761;240;1173;-53
2022/10/15 07:44:59;;;;;;;;;;;22.60;46.60;;;;;;491673;240;1442;-53
2022/10/15 07:47:01;;;;;;;;;;;22.60;46.60;;;;;;491852;240;1534;-54
2022/10/15 07:49:02;;;;;;;;;;;22.60;46.60;;;;;;491952;240;2157;-53
2022/10/15 07:51:03;;;;;;;;;;;22.60;46.60;;;;;;491600;240;1355;-53
2022/10/15 07:53:04;;;;;;;;;;;22.60;46.60;;;;;;491640;240;1350;-54
2022/10/15 07:55:06;;;;;;;;;;;22.50;46.60;;;;;;491647;240;1212;-53
2022/10/15 07:57:08;;;;;;;;;;;22.50;46.60;;;;;;491626;240;1305;-53
2022/10/15 07:59:09;;;;;;;;;;;22.50;46.70;;;;;;492085;240;1566;-53
2022/10/15 08:01:10;;;;;;;;;;;22.60;46.70;;;;;;491647;240;1204;-53
2022/10/15 08:03:11;;;;;;;;;;;22.60;46.70;;;;;;492124;240;1226;-54
2022/10/15 08:05:13;;;;;;;;;;;22.60;46.70;;;;;;491691;240;1214;-54
2022/10/15 08:07:14;;;;;;;;;;;22.60;46.70;;;;;;491692;240;1129;-53
2022/10/15 08:09:15;;;;;;;;;;;22.60;46.70;;;;;;491692;240;2160;-53
2022/10/15 08:11:16;;;;;;;;;;;22.50;46.70;;;;;;491670;240;1251;-53
2022/10/15 08:13:18;;;;;;;;;;;22.50;46.70;;;;;;491990;240;1217;-53
2022/10/15 08:15:19;;;;;;;;;;;22.60;46.70;;;;;;491913;240;1201;-53
2022/10/15 08:17:20;;;;;;;;;;;22.60;46.70;;;;;;492023;240;1811;-54
2022/10/15 08:19:22;;;;;;;;;;;22.60;46.60;;;;;;491598;240;1313;-54
2022/10/15 08:21:23;;;;;;;;;;;22.60;46.70;;;;;;491916;240;1201;-53
2022/10/15 08:23:24;;;;;;;;;;;22.60;46.60;;;;;;491651;240;1414;-53
2022/10/15 08:25:26;;;;;;;;;;;22.60;46.70;;;;;;491635;240;1300;-53
2022/10/15 08:27:27;;;;;;;;;;;22.60;46.70;;;;;;491621;240;1217;-53
2022/10/15 08:29:28;;;;;;;;;;;22.60;46.70;;;;;;491943;240;2188;-53
2022/10/15 08:31:30;;;;;;;;;;;22.50;46.60;;;;;;491891;240;1193;-53
2022/10/15 08:33:31;;;;;;;;;;;22.50;46.70;;;;;;491851;240;1423;-53
2022/10/15 08:35:35;;;;;;;;;;;22.60;46.80;;;;;;491747;240;1171;-53
2022/10/15 08:37:35;;;;;;;;;;;22.50;46.70;;;;;;491986;240;2012;-53
2022/10/15 08:39:36;;;;;;;;;;;22.60;46.70;;;;;;491789;240;1241;-53
2022/10/15 08:41:37;;;;;;;;;;;22.60;46.80;;;;;;491840;240;1208;-53
2022/10/15 08:43:39;;;;;;;;;;;22.60;46.90;;;;;;491826;240;1171;-53
2022/10/15 08:45:41;;;;;;;;;;;22.60;46.90;;;;;;491644;240;1353;-53
2022/10/15 08:47:42;;;;;;;;;;;22.60;46.90;;;;;;492132;240;1215;-53
2022/10/15 08:49:43;;;;;;;;;;;22.60;46.80;;;;;;491994;240;2191;-54
2022/10/15 08:51:45;;;;;;;;;;;22.50;46.80;;;;;;492083;240;1205;-53
2022/10/15 08:53:48;;;;;;;;;;;22.50;46.80;;;;;;492096;240;1202;-54
2022/10/15 08:55:47;;;;;;;;;;;22.50;46.80;;;;;;491939;240;2275;-53
2022/10/15 08:57:48;;;;;;;;;;;22.60;46.90;;;;;;491733;240;1194;-53
2022/10/15 08:59:50;;;;;;;;;;;22.50;46.80;;;;;;491913;240;1369;-53
2022/10/15 09:01:51;;;;;;;;;;;22.60;46.90;;;;;;491656;240;1198;-53
2022/10/15 09:03:52;;;;;;;;;;;22.60;46.90;;;;;;491673;240;1617;-54
2022/10/15 09:05:54;;;;;;;;;;;22.50;46.80;;;;;;491645;240;1309;-53
2022/10/15 09:07:55;;;;;;;;;;;22.60;46.90;;;;;;491900;240;1208;-53
2022/10/15 09:09:57;;;;;;;;;;;22.60;46.90;;;;;;491732;240;2203;-53
2022/10/15 09:11:58;;;;;;;;;;;22.60;46.90;;;;;;491656;240;1192;-53
2022/10/15 09:14:00;;;;;;;;;;;22.60;46.90;;;;;;491910;240;1260;-53
2022/10/15 09:16:02;;;;;;;;;;;22.50;46.80;;;;;;491987;240;1495;-53
2022/10/15 09:18:03;;;;;;;;;;;22.50;46.80;;;;;;491818;240;2229;-53
2022/10/15 09:20:04;;;;;;;;;;;22.60;46.90;;;;;;491963;240;2865;-54
2022/10/15 09:22:05;;;;;;;;;;;22.60;46.90;;;;;;491993;240;1243;-53
2022/10/15 09:24:06;;;;;;;;;;;22.60;46.90;;;;;;492062;240;1354;-53
2022/10/15 09:26:08;;;;;;;;;;;22.50;46.80;;;;;;491692;240;1225;-53
2022/10/15 09:28:09;;;;;;;;;;;22.60;46.90;;;;;;491658;240;1275;-53
2022/10/15 09:30:11;;;;;;;;;;;22.50;46.80;;;;;;491649;240;2188;-54
2022/10/15 09:32:12;;;;;;;;;;;22.60;46.90;;;;;;491673;240;1247;-53
2022/10/15 09:34:14;;;;;;;;;;;22.50;46.90;;;;;;492021;240;1228;-53
2022/10/15 09:36:15;;;;;;;;;;;22.60;46.90;;;;;;491633;240;1521;-54
2022/10/15 09:38:16;;;;;;;;;;;22.60;46.90;;;;;;491963;240;1361;-53
2022/10/15 09:40:18;;;;;;;;;;;22.60;46.90;;;;;;492065;240;1408;-53
2022/10/15 09:42:19;;;;;;;;;;;22.60;46.90;;;;;;491686;240;1340;-54
2022/10/15 09:44:20;;;;;;;;;;;22.60;46.90;;;;;;491701;240;1226;-54
2022/10/15 09:46:22;;;;;;;;;;;22.60;46.90;;;;;;491749;240;1515;-53
2022/10/15 09:48:23;;;;;;;;;;;22.60;46.90;;;;;;491663;240;1283;-53
2022/10/15 09:50:24;;;;;;;;;;;22.60;46.90;;;;;;491984;240;2159;-53
2022/10/15 09:52:26;;;;;;;;;;;22.50;46.90;;;;;;491644;240;1261;-53
2022/10/15 09:54:27;;;;;;;;;;;22.50;46.90;;;;;;491861;240;1222;-53
2022/10/15 09:56:28;;;;;;;;;;;22.50;46.80;;;;;;491877;240;1287;-53
2022/10/15 09:58:30;;;;;;;;;;;22.60;46.90;;;;;;491682;240;1268;-53
2022/10/15 10:00:31;;;;;;;;;;;22.60;46.90;;;;;;491976;240;1267;-53
2022/10/15 10:02:32;;;;;;;;;;;22.60;46.90;;;;;;491727;240;1198;-54
2022/10/15 10:04:35;;;;;;;;;;;22.50;46.90;;;;;;492096;240;1220;-53
2022/10/15 10:06:35;;;;;;;;;;;22.60;47.00;;;;;;491688;240;2606;-54
2022/10/15 10:08:36;;;;;;;;;;;22.50;47.00;;;;;;492107;240;1221;-53
2022/10/15 10:10:38;;;;;;;;;;;22.60;46.90;;;;;;492091;240;2157;-53
2022/10/15 10:12:39;;;;;;;;;;;22.60;46.90;;;;;;491767;240;1227;-54
2022/10/15 10:14:40;;;;;;;;;;;22.60;46.90;;;;;;491614;240;1214;-53
2022/10/15 10:16:42;;;;;;;;;;;22.60;47.00;;;;;;491974;240;1392;-53
2022/10/15 10:18:49;;;;;;;;;;;22.50;46.90;;;;;;491931;240;1229;-53
2022/10/15 10:20:45;;;;;;;;;;;22.60;47.00;;;;;;491836;240;1890;-53
2022/10/15 10:22:46;;;;;;;;;;;22.60;47.00;;;;;;491966;240;1252;-53
2022/10/15 10:24:47;;;;;;;;;;;22.50;46.90;;;;;;491678;240;1511;-54
2022/10/15 10:26:49;;;;;;;;;;;22.60;47.00;;;;;;491651;240;1194;-53
2022/10/15 10:28:50;;;;;;;;;;;22.60;47.00;;;;;;491667;240;1172;-54
2022/10/15 10:30:51;;;;;;;;;;;22.60;47.00;;;;;;492047;240;2101;-53
2022/10/15 10:32:53;;;;;;;;;;;22.60;47.00;;;;;;491691;240;1219;-54
2022/10/15 10:34:54;;;;;;;;;;;22.60;47.00;;;;;;491666;240;1204;-53
2022/10/15 10:36:55;;;;;;;;;;;22.60;47.00;;;;;;491658;240;1109;-53
2022/10/15 10:38:57;;;;;;;;;;;22.50;47.00;;;;;;491792;240;1187;-53
2022/10/15 10:40:59;;;;;;;;;;;22.50;46.90;;;;;;492107;240;1275;-53
2022/10/15 10:42:59;;;;;;;;;;;22.60;47.00;;;;;;491682;240;2278;-53
2022/10/15 10:45:01;;;;;;;;;;;22.50;47.00;;;;;;491755;240;1221;-54
2022/10/15 10:47:02;;;;;;;;;;;22.60;47.10;;;;;;492074;240;1223;-53
2022/10/15 10:49:03;;;;;;;;;;;22.50;46.90;;;;;;492048;240;1282;-53
2022/10/15 10:51:05;;;;;;;;;;;22.50;47.00;;;;;;491969;240;2129;-53
2022/10/15 10:53:06;;;;;;;;;;;22.50;47.00;;;;;;492130;240;1628;-53
2022/10/15 10:55:07;;;;;;;;;;;22.60;47.00;;;;;;492135;240;1413;-53
2022/10/15 10:57:09;;;;;;;;;;;22.50;47.00;;;;;;491982;240;1251;-54
2022/10/15 10:59:10;;;;;;;;;;;22.50;47.10;;;;;;492139;240;1219;-54
2022/10/15 11:01:11;;;;;;;;;;;22.50;47.00;;;;;;491684;240;1201;-53
2022/10/15 11:03:13;;;;;;;;;;;22.60;47.10;;;;;;491918;240;1290;-53
2022/10/15 11:05:14;;;;;;;;;;;22.60;47.10;;;;;;492143;240;1252;-53
2022/10/15 11:07:16;;;;;;;;;;;22.50;47.10;;;;;;491773;240;1544;-53
2022/10/15 11:09:17;;;;;;;;;;;22.50;47.10;;;;;;491654;240;2133;-53
2022/10/15 11:11:18;;;;;;;;;;;22.50;47.00;;;;;;491777;240;1310;-53
2022/10/15 11:13:20;;;;;;;;;;;22.50;47.00;;;;;;492115;240;1184;-53
2022/10/15 11:15:21;;;;;;;;;;;22.60;47.10;;;;;;492081;240;1223;-53
2022/10/15 11:17:22;;;;;;;;;;;22.60;47.10;;;;;;491647;240;1272;-53
2022/10/15 11:19:24;;;;;;;;;;;22.60;47.10;;;;;;491647;240;1196;-53
2022/10/15 11:21:25;;;;;;;;;;;22.50;47.00;;;;;;491966;240;1241;-53
2022/10/15 11:23:26;;;;;;;;;;;22.50;47.10;;;;;;491656;240;1235;-53
2022/10/15 11:25:28;;;;;;;;;;;22.60;47.20;;;;;;491792;240;1222;-53
2022/10/15 11:27:29;;;;;;;;;;;22.50;47.10;;;;;;491934;240;1244;-53
2022/10/15 11:29:30;;;;;;;;;;;22.50;47.10;;;;;;491756;240;2200;-53
2022/10/15 11:31:32;;;;;;;;;;;22.60;47.10;;;;;;491647;240;1235;-53
2022/10/15 11:33:33;;;;;;;;;;;22.50;47.10;;;;;;491940;240;1181;-53
2022/10/15 11:35:34;;;;;;;;;;;22.60;47.00;;;;;;491747;240;1130;-53
2022/10/15 11:37:36;;;;;;;;;;;22.60;46.90;;;;;;491810;240;1235;-53
2022/10/15 11:39:37;;;;;;;;;;;22.60;46.90;;;;;;492142;240;1289;-53
2022/10/15 11:41:38;;;;;;;;;;;22.60;46.70;;;;;;492155;240;1219;-54
2022/10/15 11:43:40;;;;;;;;;;;22.60;46.50;;;;;;491695;240;1224;-54
2022/10/15 11:45:41;;;;;;;;;;;22.60;46.50;;;;;;491653;240;1346;-54
2022/10/15 11:47:42;;;;;;;;;;;22.60;46.30;;;;;;492093;240;1269;-53
2022/10/15 11:49:44;;;;;;;;;;;22.60;46.10;;;;;;491663;240;2199;-54
2022/10/15 11:51:45;;;;;;;;;;;22.70;46.10;;;;;;492000;240;1193;-53
2022/10/15 11:53:46;;;;;;;;;;;22.70;46.00;;;;;;491623;240;1212;-54
2022/10/15 11:55:48;;;;;;;;;;;22.70;45.90;;;;;;491771;240;1257;-53
2022/10/15 11:57:49;;;;;;;;;;;22.70;45.90;;;;;;492120;240;1235;-53